createdAt,value
2022-10-23T00:02:12.854Z,60.50
2022-10-23T00:04:39.340Z,60.50
2022-10-23T00:07:05.768Z,60.50
2022-10-23T00:09:32.196Z,60.50
2022-10-23T00:11:58.640Z,59.80
2022-10-23T00:14:25.059Z,60.60
2022-10-23T00:16:51.502Z,60.00
2022-10-23T00:19:17.912Z,60.60
2022-10-23T00:21:44.343Z,59.80
2022-10-23T00:24:10.770Z,60.40
2022-10-23T00:26:37.227Z,60.40
2022-10-23T00:29:03.639Z,60.50
2022-10-23T00:31:30.060Z,59.90
2022-10-23T00:33:56.481Z,60.30
2022-10-23T00:36:22.907Z,60.40
2022-10-23T00:38:49.341Z,60.40
2022-10-23T00:41:15.781Z,59.80
2022-10-23T00:43:42.223Z,60.30
2022-10-23T00:46:08.636Z,60.40
2022-10-23T00:48:35.071Z,59.80
2022-10-23T00:51:01.491Z,59.80
2022-10-23T00:53:27.904Z,60.40
2022-10-23T00:55:54.338Z,59.80
2022-10-23T00:58:20.761Z,60.40
2022-10-23T01:00:47.186Z,59.70
2022-10-23T01:03:13.616Z,60.30
2022-10-23T01:05:40.093Z,60.30
2022-10-23T01:08:06.534Z,60.20
2022-10-23T01:10:32.968Z,59.70
2022-10-23T01:12:59.392Z,60.40
2022-10-23T01:15:25.831Z,60.20
2022-10-23T01:17:52.243Z,60.20
2022-10-23T01:20:18.665Z,59.60
2022-10-23T01:22:45.156Z,60.10
2022-10-23T01:25:11.583Z,60.80
2022-10-23T01:27:37.998Z,60.10
2022-10-23T01:30:04.413Z,59.60
2022-10-23T01:32:30.843Z,60.10
2022-10-23T01:34:57.264Z,59.60
2022-10-23T01:37:23.684Z,60.20
2022-10-23T01:39:50.101Z,59.50
2022-10-23T01:42:16.517Z,60.00
2022-10-23T01:44:42.945Z,60.00
2022-10-23T01:47:09.444Z,60.00
2022-10-23T01:49:35.922Z,59.50
2022-10-23T01:52:02.357Z,60.00
2022-10-23T01:54:28.789Z,59.90
2022-10-23T01:56:55.220Z,59.90
2022-10-23T01:59:21.647Z,59.90
2022-10-23T02:01:48.136Z,59.40
2022-10-23T02:04:14.631Z,59.90
2022-10-23T02:06:41.060Z,59.90
2022-10-23T02:09:07.477Z,59.90
2022-10-23T02:11:33.901Z,59.40
2022-10-23T02:14:00.348Z,59.90
2022-10-23T02:16:26.766Z,59.80
2022-10-23T02:18:53.193Z,59.70
2022-10-23T02:21:19.623Z,59.20
2022-10-23T02:23:46.035Z,59.70
2022-10-23T02:26:12.458Z,59.80
2022-10-23T02:28:38.899Z,59.70
2022-10-23T02:31:05.327Z,59.20
2022-10-23T02:33:31.746Z,59.70
2022-10-23T02:35:58.189Z,59.70
2022-10-23T02:38:24.636Z,59.60
2022-10-23T02:40:51.050Z,59.10
2022-10-23T02:43:17.464Z,59.60
2022-10-23T02:45:43.899Z,59.60
2022-10-23T02:48:10.331Z,59.60
2022-10-23T02:50:36.751Z,59.10
2022-10-23T02:53:03.180Z,59.60
2022-10-23T02:55:29.624Z,59.60
2022-10-23T02:57:56.065Z,59.60
2022-10-23T03:00:22.492Z,59.10
2022-10-23T03:02:48.903Z,59.60
2022-10-23T03:05:15.327Z,59.50
2022-10-23T03:07:42.151Z,59.50
2022-10-23T03:10:08.842Z,59.00
2022-10-23T03:12:35.255Z,59.50
2022-10-23T03:15:01.671Z,59.50
2022-10-23T03:17:28.092Z,59.50
2022-10-23T03:19:54.545Z,59.00
2022-10-23T03:22:20.951Z,59.50
2022-10-23T03:24:47.365Z,59.40
2022-10-23T03:27:13.776Z,59.40
2022-10-23T03:29:40.195Z,58.90
2022-10-23T03:32:06.625Z,59.40
2022-10-23T03:34:33.032Z,59.50
2022-10-23T03:36:59.445Z,59.40
2022-10-23T03:39:25.855Z,59.40
2022-10-23T03:41:52.296Z,58.90
2022-10-23T03:44:18.719Z,59.40
2022-10-23T03:46:45.127Z,59.40
2022-10-23T03:49:11.556Z,59.40
2022-10-23T03:51:37.972Z,58.90
2022-10-23T03:54:04.407Z,59.40
2022-10-23T03:56:30.836Z,59.30
2022-10-23T03:58:57.260Z,59.20
2022-10-23T04:01:23.800Z,58.70
2022-10-23T04:03:50.355Z,59.20
2022-10-23T04:06:16.779Z,59.20
2022-10-23T04:08:43.226Z,59.30
2022-10-23T04:11:09.639Z,58.60
2022-10-23T04:13:36.055Z,59.20
2022-10-23T04:16:02.474Z,59.20
2022-10-23T04:18:28.946Z,59.10
2022-10-23T04:20:55.368Z,58.60
2022-10-23T04:23:21.803Z,59.10
2022-10-23T04:28:19.584Z,59.20
2022-10-23T04:30:45.994Z,58.60
2022-10-23T04:33:12.437Z,59.10
2022-10-23T04:35:38.855Z,58.60
2022-10-23T04:38:05.305Z,59.00
2022-10-23T04:40:31.732Z,58.50
2022-10-23T04:42:58.167Z,58.60
2022-10-23T04:45:24.575Z,59.10
2022-10-23T04:47:50.996Z,59.00
2022-10-23T04:50:17.439Z,58.60
2022-10-23T04:52:44.186Z,59.00
2022-10-23T04:55:10.840Z,58.60
2022-10-23T04:57:37.260Z,59.00
2022-10-23T05:00:03.679Z,58.50
2022-10-23T05:02:30.103Z,58.50
2022-10-23T05:04:56.533Z,58.50
2022-10-23T05:07:23.000Z,59.10
2022-10-23T05:09:49.484Z,58.50
2022-10-23T05:12:15.937Z,59.00
2022-10-23T05:14:42.373Z,59.00
2022-10-23T05:17:08.824Z,58.50
2022-10-23T05:19:35.289Z,58.50
2022-10-23T05:22:01.713Z,59.00
2022-10-23T05:24:28.133Z,58.50
2022-10-23T05:26:54.547Z,59.00
2022-10-23T05:29:20.962Z,59.00
2022-10-23T05:31:47.372Z,58.50
2022-10-23T05:34:13.812Z,59.00
2022-10-23T05:36:40.241Z,58.40
2022-10-23T05:39:06.656Z,59.00
2022-10-23T05:41:33.092Z,58.40
2022-10-23T05:43:59.524Z,58.30
2022-10-23T05:46:25.931Z,58.80
2022-10-23T05:48:52.412Z,58.90
2022-10-23T05:51:18.863Z,58.40
2022-10-23T05:53:45.300Z,58.90
2022-10-23T05:56:11.728Z,58.90
2022-10-23T05:58:38.160Z,58.30
2022-10-23T06:01:04.645Z,58.30
2022-10-23T06:03:31.152Z,58.80
2022-10-23T06:05:57.573Z,58.80
2022-10-23T06:08:24.013Z,58.80
2022-10-23T06:10:50.482Z,58.30
2022-10-23T06:13:16.912Z,58.30
2022-10-23T06:15:43.337Z,58.80
2022-10-23T06:18:09.772Z,58.80
2022-10-23T06:20:36.189Z,58.40
2022-10-23T06:23:02.630Z,58.80
2022-10-23T06:25:29.044Z,58.80
2022-10-23T06:27:55.504Z,58.80
2022-10-23T06:30:21.926Z,58.30
2022-10-23T06:32:48.399Z,58.80
2022-10-23T06:35:14.818Z,58.30
2022-10-23T06:37:41.309Z,58.70
2022-10-23T06:40:07.747Z,58.30
2022-10-23T06:42:34.183Z,58.20
2022-10-23T06:45:04.760Z,58.80
2022-10-23T06:47:32.959Z,58.80
2022-10-23T06:49:59.393Z,58.10
2022-10-23T06:52:45.869Z,58.70
2022-10-23T06:55:12.232Z,58.70
2022-10-23T06:57:38.658Z,58.70
2022-10-23T07:00:05.170Z,58.30
2022-10-23T07:02:31.596Z,58.80
2022-10-23T07:04:58.047Z,58.30
2022-10-23T07:07:24.462Z,58.80
2022-10-23T07:09:50.901Z,58.20
2022-10-23T07:12:17.323Z,58.80
2022-10-23T07:14:43.765Z,58.70
2022-10-23T07:17:10.180Z,58.70
2022-10-23T07:19:36.599Z,58.10
2022-10-23T07:22:03.025Z,58.70
2022-10-23T07:24:29.534Z,58.10
2022-10-23T07:26:56.009Z,58.70
2022-10-23T07:29:22.446Z,58.50
2022-10-23T07:31:48.894Z,58.10
2022-10-23T07:34:15.659Z,58.60
2022-10-23T07:36:42.067Z,58.60
2022-10-23T07:39:08.484Z,58.30
2022-10-23T07:41:34.906Z,58.30
2022-10-23T07:44:01.348Z,58.30
2022-10-23T07:46:27.766Z,58.80
2022-10-23T07:48:54.179Z,58.60
2022-10-23T07:51:20.607Z,58.20
2022-10-23T07:53:47.020Z,58.90
2022-10-23T07:56:13.455Z,58.80
2022-10-23T07:58:39.877Z,58.20
2022-10-23T08:01:06.358Z,58.30
2022-10-23T08:03:32.825Z,58.80
2022-10-23T08:05:59.261Z,58.30
2022-10-23T08:08:25.696Z,58.80
2022-10-23T08:10:52.107Z,58.40
2022-10-23T08:13:18.545Z,58.90
2022-10-23T08:15:44.960Z,59.00
2022-10-23T08:18:11.405Z,58.90
2022-10-23T08:20:37.829Z,58.40
2022-10-23T08:23:04.253Z,58.90
2022-10-23T08:28:04.268Z,58.90
2022-10-23T08:30:32.731Z,58.30
2022-10-23T08:32:59.153Z,58.90
2022-10-23T08:35:25.592Z,58.90
2022-10-23T08:37:52.016Z,59.00
2022-10-23T08:40:18.427Z,58.40
2022-10-23T08:42:45.054Z,59.00
2022-10-23T08:45:11.644Z,59.00
2022-10-23T08:47:38.083Z,59.10
2022-10-23T08:50:04.491Z,58.60
2022-10-23T08:52:30.895Z,59.10
2022-10-23T08:54:57.303Z,59.00
2022-10-23T08:57:23.732Z,58.90
2022-10-23T08:59:50.159Z,58.30
2022-10-23T09:02:16.640Z,58.80
2022-10-23T09:04:43.143Z,58.30
2022-10-23T09:09:40.889Z,58.30
2022-10-23T09:12:07.312Z,58.40
2022-10-23T09:14:33.765Z,59.00
2022-10-23T09:17:00.191Z,59.00
2022-10-23T09:19:26.613Z,58.50
2022-10-23T09:21:53.041Z,58.50
2022-10-23T09:24:19.476Z,59.00
2022-10-23T09:26:45.926Z,58.40
2022-10-23T09:29:12.369Z,58.90
2022-10-23T09:31:38.818Z,58.30
2022-10-23T09:34:08.471Z,58.30
2022-10-23T09:36:37.375Z,58.40
2022-10-23T09:39:03.838Z,58.90
2022-10-23T09:41:30.316Z,58.40
2022-10-23T09:43:56.719Z,58.30
2022-10-23T09:46:23.155Z,58.90
2022-10-23T09:48:49.576Z,58.90
2022-10-23T09:51:16.004Z,58.20
2022-10-23T09:53:42.445Z,58.90
2022-10-23T09:56:08.859Z,58.90
2022-10-23T09:58:35.276Z,58.90
2022-10-23T10:01:01.736Z,58.40
2022-10-23T10:03:28.213Z,58.40
2022-10-23T10:05:54.637Z,59.00
2022-10-23T10:08:21.153Z,58.90
2022-10-23T10:10:47.589Z,58.60
2022-10-23T10:13:15.034Z,59.00
2022-10-23T10:15:41.559Z,59.10
2022-10-23T10:18:08.004Z,58.60
2022-10-23T10:20:34.440Z,58.70
2022-10-23T10:23:00.860Z,58.70
2022-10-23T10:25:27.283Z,58.80
2022-10-23T10:27:53.728Z,59.30
2022-10-23T10:30:20.165Z,58.70
2022-10-23T10:32:46.613Z,58.90
2022-10-23T10:35:13.060Z,59.40
2022-10-23T10:37:39.492Z,59.30
2022-10-23T10:40:05.944Z,58.80
2022-10-23T10:42:32.400Z,59.40
2022-10-23T10:44:58.818Z,59.50
2022-10-23T10:47:25.248Z,58.90
2022-10-23T10:49:51.678Z,58.80
2022-10-23T10:52:18.117Z,59.30
2022-10-23T10:54:44.549Z,58.90
2022-10-23T10:57:10.981Z,58.80
2022-10-23T10:59:37.415Z,58.70
2022-10-23T11:02:03.934Z,58.70
2022-10-23T11:04:30.504Z,59.10
2022-10-23T11:06:56.921Z,59.10
2022-10-23T11:09:23.352Z,59.00
2022-10-23T11:11:49.792Z,58.70
2022-10-23T11:14:16.207Z,59.20
2022-10-23T11:16:42.619Z,58.60
2022-10-23T11:19:11.523Z,58.50
2022-10-23T11:21:40.408Z,58.60
2022-10-23T11:24:06.889Z,59.20
2022-10-23T11:26:33.340Z,58.40
2022-10-23T11:28:59.756Z,58.90
2022-10-23T11:31:26.172Z,58.50
2022-10-23T11:33:52.608Z,59.10
2022-10-23T11:36:19.017Z,58.80
2022-10-23T11:38:45.460Z,59.30
2022-10-23T11:41:11.896Z,58.90
2022-10-23T11:43:38.312Z,58.90
2022-10-23T11:46:05.567Z,59.40
2022-10-23T11:48:32.014Z,59.10
2022-10-23T11:51:00.306Z,59.20
2022-10-23T11:53:29.245Z,59.70
2022-10-23T11:55:55.672Z,60.10
2022-10-23T11:58:22.098Z,60.00
2022-10-23T12:00:48.520Z,60.10
2022-10-23T12:03:14.928Z,60.60
2022-10-23T12:05:41.356Z,60.20
2022-10-23T12:08:07.781Z,60.50
2022-10-23T12:10:34.205Z,59.80
2022-10-23T12:13:00.620Z,60.50
2022-10-23T12:15:27.040Z,60.60
2022-10-23T12:17:53.501Z,60.30
2022-10-23T12:20:19.924Z,60.70
2022-10-23T12:22:46.376Z,61.10
2022-10-23T12:25:12.787Z,61.30
2022-10-23T12:27:39.226Z,60.80
2022-10-23T12:30:05.661Z,60.80
2022-10-23T12:32:32.076Z,61.50
2022-10-23T12:34:58.500Z,61.60
2022-10-23T12:37:24.912Z,60.30
2022-10-23T12:39:51.332Z,60.20
2022-10-23T12:42:17.751Z,60.90
2022-10-23T12:44:44.175Z,61.30
2022-10-23T12:47:10.597Z,60.80
2022-10-23T12:49:37.023Z,60.40
2022-10-23T12:52:03.449Z,61.00
2022-10-23T12:54:29.889Z,60.50
2022-10-23T12:56:56.312Z,60.50
2022-10-23T12:59:23.166Z,60.30
2022-10-23T13:01:52.799Z,59.90
2022-10-23T13:06:50.901Z,59.90
2022-10-23T13:09:17.324Z,60.40
2022-10-23T13:11:43.766Z,59.90
2022-10-23T13:14:10.213Z,60.00
2022-10-23T13:16:36.640Z,60.40
2022-10-23T13:19:03.056Z,60.40
2022-10-23T13:21:29.480Z,59.70
2022-10-23T13:23:55.913Z,59.80
2022-10-23T13:26:22.336Z,60.40
2022-10-23T13:28:48.771Z,60.30
2022-10-23T13:31:15.192Z,59.80
2022-10-23T13:33:41.637Z,60.30
2022-10-23T13:36:08.097Z,60.30
2022-10-23T13:38:34.528Z,60.40
2022-10-23T13:41:00.963Z,59.80
2022-10-23T13:43:27.389Z,60.30
2022-10-23T13:45:53.821Z,60.00
2022-10-23T13:48:20.292Z,60.50
2022-10-23T13:50:46.721Z,59.80
2022-10-23T13:53:13.136Z,60.20
2022-10-23T13:55:39.553Z,60.40
2022-10-23T13:58:05.980Z,60.50
2022-10-23T14:00:32.441Z,60.00
2022-10-23T14:02:58.890Z,60.50
2022-10-23T14:05:25.328Z,60.40
2022-10-23T14:07:51.752Z,60.20
2022-10-23T14:10:18.194Z,59.70
2022-10-23T14:12:44.989Z,60.30
2022-10-23T14:15:11.607Z,60.40
2022-10-23T14:17:38.025Z,60.40
2022-10-23T14:20:06.084Z,59.80
2022-10-23T14:22:32.908Z,60.40
2022-10-23T14:24:59.321Z,59.80
2022-10-23T14:27:25.735Z,60.50
2022-10-23T14:29:52.175Z,60.00
2022-10-23T14:32:18.591Z,60.00
2022-10-23T14:34:45.000Z,60.60
2022-10-23T14:37:11.418Z,60.40
2022-10-23T14:39:37.902Z,59.70
2022-10-23T14:42:04.328Z,60.40
2022-10-23T14:44:30.841Z,60.40
2022-10-23T14:46:57.336Z,60.40
2022-10-23T14:49:23.765Z,60.00
2022-10-23T14:51:50.187Z,60.60
2022-10-23T14:54:16.649Z,60.60
2022-10-23T14:56:43.075Z,60.60
2022-10-23T14:59:09.552Z,60.70
2022-10-23T15:01:36.265Z,60.00
2022-10-23T15:04:02.823Z,60.20
2022-10-23T15:06:29.240Z,60.60
2022-10-23T15:08:55.659Z,60.60
2022-10-23T15:11:22.118Z,60.20
2022-10-23T15:13:48.540Z,60.70
2022-10-23T15:16:14.969Z,60.70
2022-10-23T15:18:41.399Z,60.80
2022-10-23T15:21:07.863Z,60.20
2022-10-23T15:23:34.320Z,61.00
2022-10-23T15:26:00.775Z,60.90
2022-10-23T15:28:27.208Z,60.90
2022-10-23T15:30:53.660Z,60.40
2022-10-23T15:33:20.129Z,60.80
2022-10-23T15:35:46.588Z,61.10
2022-10-23T15:38:13.035Z,60.90
2022-10-23T15:40:39.500Z,60.30
2022-10-23T15:43:05.966Z,61.00
2022-10-23T15:45:32.428Z,60.70
2022-10-23T15:47:58.917Z,61.10
2022-10-23T15:50:25.407Z,60.50
2022-10-23T15:52:51.839Z,61.40
2022-10-23T15:55:18.289Z,61.00
2022-10-23T15:57:44.729Z,60.90
2022-10-23T16:00:11.172Z,60.40
2022-10-23T16:02:37.672Z,60.90
2022-10-23T16:05:04.217Z,60.90
2022-10-23T16:07:30.654Z,60.90
2022-10-23T16:09:57.120Z,60.40
2022-10-23T16:12:23.555Z,61.10
2022-10-23T16:14:49.992Z,61.50
2022-10-23T16:19:47.762Z,61.20
2022-10-23T16:22:14.210Z,61.80
2022-10-23T16:24:40.667Z,62.00
2022-10-23T16:27:07.131Z,62.20
2022-10-23T16:29:33.593Z,61.70
2022-10-23T16:32:00.067Z,62.40
2022-10-23T16:34:26.543Z,62.40
2022-10-23T16:36:52.999Z,62.70
2022-10-23T16:39:19.469Z,62.00
2022-10-23T16:41:45.978Z,62.60
2022-10-23T16:44:12.482Z,62.60
2022-10-23T16:46:38.932Z,62.70
2022-10-23T16:49:05.368Z,62.70
2022-10-23T16:51:31.851Z,61.70
2022-10-23T16:53:58.286Z,63.10
2022-10-23T16:56:24.758Z,62.10
2022-10-23T16:58:51.316Z,61.10
2022-10-23T17:01:17.897Z,60.60
2022-10-23T17:03:44.459Z,62.00
2022-10-23T17:06:11.379Z,61.50
2022-10-23T17:08:37.899Z,61.20
2022-10-23T17:11:04.341Z,61.40
2022-10-23T17:13:30.761Z,61.50
2022-10-23T17:15:57.235Z,61.10
2022-10-23T17:18:23.698Z,61.20
2022-10-23T17:20:50.159Z,60.70
2022-10-23T17:23:16.596Z,62.10
2022-10-23T17:25:43.016Z,61.20
2022-10-23T17:28:09.436Z,60.60
2022-10-23T17:30:35.890Z,61.10
2022-10-23T17:33:02.317Z,61.70
2022-10-23T17:35:28.765Z,61.70
2022-10-23T17:37:55.206Z,60.60
2022-10-23T17:40:25.059Z,60.80
2022-10-23T17:42:51.752Z,61.60
2022-10-23T17:45:18.174Z,61.30
2022-10-23T17:47:44.611Z,61.40
2022-10-23T17:50:11.039Z,60.80
2022-10-23T17:52:37.483Z,61.80
2022-10-23T17:55:03.933Z,61.30
2022-10-23T17:57:30.373Z,61.70
2022-10-23T17:59:56.799Z,60.70
2022-10-23T18:02:23.324Z,61.70
2022-10-23T18:04:49.839Z,61.80
2022-10-23T18:07:16.315Z,61.90
2022-10-23T18:09:42.758Z,61.30
2022-10-23T18:12:09.191Z,62.20
2022-10-23T18:14:37.442Z,62.10
2022-10-23T18:17:04.218Z,62.40
2022-10-23T18:19:30.671Z,61.50
2022-10-23T18:21:57.122Z,62.50
2022-10-23T18:24:23.558Z,62.80
2022-10-23T18:26:50.028Z,63.30
2022-10-23T18:29:16.453Z,62.40
2022-10-23T18:31:42.888Z,63.10
2022-10-23T18:34:09.335Z,62.70
2022-10-23T18:36:35.770Z,62.90
2022-10-23T18:39:02.280Z,62.70
2022-10-23T18:41:28.742Z,62.60
2022-10-23T18:43:55.197Z,63.10
2022-10-23T18:46:21.657Z,63.00
2022-10-23T18:48:48.154Z,62.20
2022-10-23T18:51:15.768Z,62.00
2022-10-23T18:53:42.580Z,62.60
2022-10-23T18:56:09.016Z,62.70
2022-10-23T18:58:35.458Z,63.00
2022-10-23T19:01:01.997Z,62.40
2022-10-23T19:03:28.604Z,62.90
2022-10-23T19:05:55.094Z,62.90
2022-10-23T19:08:21.556Z,63.30
2022-10-23T19:10:48.065Z,62.90
2022-10-23T19:13:14.579Z,63.50
2022-10-23T19:15:40.999Z,63.70
2022-10-23T19:18:07.446Z,63.60
2022-10-23T19:20:33.922Z,63.00
2022-10-23T19:23:00.352Z,64.00
2022-10-23T19:25:26.784Z,64.00
2022-10-23T19:27:53.214Z,63.80
2022-10-23T19:30:22.589Z,63.50
2022-10-23T19:32:49.389Z,63.80
2022-10-23T19:35:15.965Z,63.10
2022-10-23T19:37:42.698Z,63.10
2022-10-23T19:40:09.307Z,63.30
2022-10-23T19:42:35.745Z,64.00
2022-10-23T19:45:02.168Z,64.10
2022-10-23T19:47:28.602Z,63.50
2022-10-23T19:49:55.034Z,63.40
2022-10-23T19:52:21.460Z,64.20
2022-10-23T19:54:47.895Z,65.70
2022-10-23T19:57:14.607Z,63.60
2022-10-23T19:59:42.822Z,62.40
2022-10-23T20:02:09.423Z,63.10
2022-10-23T20:04:36.052Z,62.90
2022-10-23T20:07:02.521Z,62.50
2022-10-23T20:09:28.931Z,61.60
2022-10-23T20:11:55.358Z,62.20
2022-10-23T20:14:21.838Z,62.40
2022-10-23T20:16:52.167Z,61.80
2022-10-23T20:19:21.356Z,61.80
2022-10-23T20:21:47.793Z,62.40
2022-10-23T20:24:14.222Z,62.50
2022-10-23T20:26:40.650Z,62.50
2022-10-23T20:29:07.100Z,62.60
2022-10-23T20:31:33.533Z,61.90
2022-10-23T20:33:59.970Z,62.50
2022-10-23T20:36:26.389Z,62.50
2022-10-23T20:38:52.839Z,62.40
2022-10-23T20:41:19.308Z,61.70
2022-10-23T20:43:45.747Z,61.70
2022-10-23T20:46:12.193Z,62.40
2022-10-23T20:48:38.624Z,61.80
2022-10-23T20:51:05.144Z,61.80
2022-10-23T20:53:31.572Z,62.50
2022-10-23T20:55:58.064Z,61.80
2022-10-23T20:58:24.496Z,61.80
2022-10-23T21:03:22.277Z,61.90
2022-10-23T21:05:48.744Z,61.90
2022-10-23T21:08:15.217Z,62.60
2022-10-23T21:10:41.645Z,62.00
2022-10-23T21:13:08.087Z,62.00
2022-10-23T21:15:34.540Z,62.00
2022-10-23T21:18:07.993Z,62.50
2022-10-23T21:20:45.727Z,62.00
2022-10-23T21:23:12.166Z,62.60
2022-10-23T21:25:38.626Z,62.00
2022-10-23T21:28:05.065Z,62.60
2022-10-23T21:30:31.532Z,61.90
2022-10-23T21:32:57.977Z,62.60
2022-10-23T21:35:26.535Z,61.90
2022-10-23T21:37:55.707Z,62.60
2022-10-23T21:40:22.143Z,61.90
2022-10-23T21:42:48.603Z,62.60
2022-10-23T21:45:15.052Z,62.50
2022-10-23T21:47:41.658Z,62.60
2022-10-23T21:50:08.278Z,61.90
2022-10-23T21:52:34.730Z,63.40
2022-10-23T21:55:01.177Z,62.50
2022-10-23T21:57:27.609Z,62.60
2022-10-23T21:59:54.057Z,61.80
2022-10-23T22:02:20.581Z,61.80
2022-10-23T22:04:47.120Z,62.50
2022-10-23T22:07:13.586Z,62.50
2022-10-23T22:09:40.018Z,61.60
2022-10-23T22:12:06.497Z,61.60
2022-10-23T22:14:32.946Z,61.70
2022-10-23T22:16:59.370Z,62.20
2022-10-23T22:19:25.808Z,61.70
2022-10-23T22:21:52.235Z,61.60
2022-10-23T22:24:18.688Z,61.70
2022-10-23T22:26:45.130Z,61.70
2022-10-23T22:29:11.598Z,62.30
2022-10-23T22:31:38.017Z,61.60
2022-10-23T22:34:13.276Z,62.20
2022-10-23T22:36:50.898Z,62.20
2022-10-23T22:39:17.331Z,62.20
2022-10-23T22:41:43.788Z,61.60
2022-10-23T22:44:10.240Z,61.50
2022-10-23T22:46:36.679Z,62.20
2022-10-23T22:49:03.141Z,62.10
2022-10-23T22:51:29.575Z,61.50
2022-10-23T22:53:56.038Z,62.20
2022-10-23T22:56:22.548Z,61.50
2022-10-23T22:58:48.957Z,62.10
2022-10-23T23:01:15.548Z,61.40
2022-10-23T23:03:42.012Z,61.40
2022-10-23T23:06:08.444Z,62.00
2022-10-23T23:08:34.888Z,62.00
2022-10-23T23:11:01.326Z,61.30
2022-10-23T23:13:27.740Z,61.90
2022-10-23T23:15:54.193Z,61.30
2022-10-23T23:18:20.664Z,61.90
2022-10-23T23:20:47.096Z,61.30
2022-10-23T23:23:13.558Z,61.20
2022-10-23T23:25:40.001Z,61.20
2022-10-23T23:28:06.417Z,61.90
2022-10-23T23:30:33.003Z,61.20
2022-10-23T23:32:59.477Z,61.20
2022-10-23T23:35:25.909Z,61.90
2022-10-23T23:37:52.349Z,61.80
2022-10-23T23:40:18.792Z,61.10
2022-10-23T23:42:45.684Z,61.10
2022-10-23T23:45:15.433Z,61.10
2022-10-23T23:47:42.222Z,61.10
2022-10-23T23:50:09.057Z,61.10
2022-10-23T23:52:35.483Z,61.80
2022-10-23T23:55:01.930Z,61.80
2022-10-23T23:57:28.386Z,61.80
2022-10-23T23:59:54.856Z,60.90
